sensor_id;sensor_type;location;lat;lon;timestamp;pressure;altitude;pressure_sealevel;temperature
78225;BMP280;67498;53.650;10.090;2023-08-24T00:00:09;101782.91;;;19.37
78225;BMP280;67498;53.650;10.090;2023-08-24T00:02:35;101787.16;;;19.34
78225;BMP280;67498;53.650;10.090;2023-08-24T00:05:00;101783.03;;;19.33
78225;BMP280;67498;53.650;10.090;2023-08-24T00:07:25;101783.78;;;19.34
78225;BMP280;67498;53.650;10.090;2023-08-24T00:09:53;101782.00;;;19.31
78225;BMP280;67498;53.650;10.090;2023-08-24T00:12:18;101777.13;;;19.29
78225;BMP280;67498;53.650;10.090;2023-08-24T00:14:43;101778.28;;;19.28
78225;BMP280;67498;53.650;10.090;2023-08-24T00:17:08;101772.50;;;19.20
78225;BMP280;67498;53.650;10.090;2023-08-24T00:19:34;101779.59;;;19.23
78225;BMP280;67498;53.650;10.090;2023-08-24T00:21:59;101774.41;;;19.20
78225;BMP280;67498;53.650;10.090;2023-08-24T00:24:24;101773.06;;;19.15
78225;BMP280;67498;53.650;10.090;2023-08-24T00:26:49;101769.91;;;19.08
78225;BMP280;67498;53.650;10.090;2023-08-24T00:29:15;101770.59;;;18.99
78225;BMP280;67498;53.650;10.090;2023-08-24T00:31:41;101768.16;;;18.92
78225;BMP280;67498;53.650;10.090;2023-08-24T00:34:06;101775.91;;;18.86
78225;BMP280;67498;53.650;10.090;2023-08-24T00:36:31;101769.72;;;18.80
78225;BMP280;67498;53.650;10.090;2023-08-24T00:38:56;101763.47;;;18.74
78225;BMP280;67498;53.650;10.090;2023-08-24T00:41:22;101764.75;;;18.69
78225;BMP280;67498;53.650;10.090;2023-08-24T00:43:47;101760.72;;;18.65
78225;BMP280;67498;53.650;10.090;2023-08-24T00:46:15;101763.03;;;18.63
78225;BMP280;67498;53.650;10.090;2023-08-24T00:48:40;101764.25;;;18.62
78225;BMP280;67498;53.650;10.090;2023-08-24T00:51:05;101771.31;;;18.65
78225;BMP280;67498;53.650;10.090;2023-08-24T00:53:31;101766.75;;;18.65
78225;BMP280;67498;53.650;10.090;2023-08-24T00:55:57;101760.09;;;18.61
78225;BMP280;67498;53.650;10.090;2023-08-24T00:58:23;101757.88;;;18.59
78225;BMP280;67498;53.650;10.090;2023-08-24T01:00:50;101769.84;;;18.64
78225;BMP280;67498;53.650;10.090;2023-08-24T01:03:16;101766.06;;;18.52
78225;BMP280;67498;53.650;10.090;2023-08-24T01:05:42;101765.19;;;18.55
78225;BMP280;67498;53.650;10.090;2023-08-24T01:08:07;101771.56;;;18.58
78225;BMP280;67498;53.650;10.090;2023-08-24T01:10:40;101773.88;;;18.56
78225;BMP280;67498;53.650;10.090;2023-08-24T01:13:09;101778.22;;;18.50
78225;BMP280;67498;53.650;10.090;2023-08-24T01:15:43;101772.84;;;18.40
78225;BMP280;67498;53.650;10.090;2023-08-24T01:18:11;101778.22;;;18.37
78225;BMP280;67498;53.650;10.090;2023-08-24T01:20:40;101783.94;;;18.35
78225;BMP280;67498;53.650;10.090;2023-08-24T01:23:17;101788.47;;;18.35
78225;BMP280;67498;53.650;10.090;2023-08-24T01:25:52;101779.19;;;18.30
78225;BMP280;67498;53.650;10.090;2023-08-24T01:28:19;101784.59;;;18.27
78225;BMP280;67498;53.650;10.090;2023-08-24T01:30:46;101785.66;;;18.16
78225;BMP280;67498;53.650;10.090;2023-08-24T01:33:11;101781.63;;;18.12
78225;BMP280;67498;53.650;10.090;2023-08-24T01:35:37;101794.84;;;18.12
78225;BMP280;67498;53.650;10.090;2023-08-24T01:38:03;101774.00;;;18.01
78225;BMP280;67498;53.650;10.090;2023-08-24T01:40:41;101788.28;;;18.04
78225;BMP280;67498;53.650;10.090;2023-08-24T01:43:09;101783.13;;;18.00
78225;BMP280;67498;53.650;10.090;2023-08-24T01:45:35;101787.53;;;18.03
78225;BMP280;67498;53.650;10.090;2023-08-24T01:48:03;101783.53;;;17.99
78225;BMP280;67498;53.650;10.090;2023-08-24T01:50:29;101781.75;;;17.96
78225;BMP280;67498;53.650;10.090;2023-08-24T01:52:55;101782.25;;;17.90
78225;BMP280;67498;53.650;10.090;2023-08-24T01:55:20;101778.94;;;17.86
78225;BMP280;67498;53.650;10.090;2023-08-24T01:57:47;101786.13;;;17.86
78225;BMP280;67498;53.650;10.090;2023-08-24T02:00:13;101781.41;;;17.81
78225;BMP280;67498;53.650;10.090;2023-08-24T02:02:38;101775.56;;;17.73
78225;BMP280;67498;53.650;10.090;2023-08-24T02:05:04;101764.00;;;17.67
78225;BMP280;67498;53.650;10.090;2023-08-24T02:07:29;101768.66;;;17.63
78225;BMP280;67498;53.650;10.090;2023-08-24T02:09:54;101765.69;;;17.61
78225;BMP280;67498;53.650;10.090;2023-08-24T02:12:20;101776.34;;;17.57
78225;BMP280;67498;53.650;10.090;2023-08-24T02:14:45;101770.75;;;17.55
78225;BMP280;67498;53.650;10.090;2023-08-24T02:17:10;101761.53;;;17.47
78225;BMP280;67498;53.650;10.090;2023-08-24T02:19:36;101775.19;;;17.46
78225;BMP280;67498;53.650;10.090;2023-08-24T02:22:01;101764.47;;;17.36
78225;BMP280;67498;53.650;10.090;2023-08-24T02:24:26;101765.31;;;17.33
78225;BMP280;67498;53.650;10.090;2023-08-24T02:26:52;101763.16;;;17.28
78225;BMP280;67498;53.650;10.090;2023-08-24T02:29:17;101761.03;;;17.23
78225;BMP280;67498;53.650;10.090;2023-08-24T02:31:42;101762.63;;;17.21
78225;BMP280;67498;53.650;10.090;2023-08-24T02:34:08;101763.88;;;17.16
78225;BMP280;67498;53.650;10.090;2023-08-24T02:36:33;101751.38;;;17.04
78225;BMP280;67498;53.650;10.090;2023-08-24T02:38:59;101751.38;;;17.04
78225;BMP280;67498;53.650;10.090;2023-08-24T02:41:25;101752.41;;;17.06
78225;BMP280;67498;53.650;10.090;2023-08-24T02:43:51;101748.81;;;17.00
78225;BMP280;67498;53.650;10.090;2023-08-24T02:46:16;101750.69;;;17.00
78225;BMP280;67498;53.650;10.090;2023-08-24T02:48:43;101753.00;;;16.98
78225;BMP280;67498;53.650;10.090;2023-08-24T02:51:09;101754.97;;;16.94
78225;BMP280;67498;53.650;10.090;2023-08-24T02:53:35;101751.25;;;16.91
78225;BMP280;67498;53.650;10.090;2023-08-24T02:56:01;101751.88;;;16.82
78225;BMP280;67498;53.650;10.090;2023-08-24T02:58:26;101764.22;;;16.85
78225;BMP280;67498;53.650;10.090;2023-08-24T03:00:52;101743.31;;;16.78
78225;BMP280;67498;53.650;10.090;2023-08-24T03:03:17;101754.16;;;16.80
78225;BMP280;67498;53.650;10.090;2023-08-24T03:05:59;101752.69;;;16.79
78225;BMP280;67498;53.650;10.090;2023-08-24T03:08:26;101753.13;;;16.78
78225;BMP280;67498;53.650;10.090;2023-08-24T03:10:51;101741.56;;;16.72
78225;BMP280;67498;53.650;10.090;2023-08-24T03:13:17;101740.41;;;16.73
78225;BMP280;67498;53.650;10.090;2023-08-24T03:15:42;101742.22;;;16.76
78225;BMP280;67498;53.650;10.090;2023-08-24T03:18:09;101745.59;;;16.76
78225;BMP280;67498;53.650;10.090;2023-08-24T03:20:34;101736.28;;;16.72
78225;BMP280;67498;53.650;10.090;2023-08-24T03:22:59;101737.69;;;16.76
78225;BMP280;67498;53.650;10.090;2023-08-24T03:25:25;101742.66;;;16.74
78225;BMP280;67498;53.650;10.090;2023-08-24T03:27:51;101743.03;;;16.73
78225;BMP280;67498;53.650;10.090;2023-08-24T03:30:16;101737.44;;;16.71
78225;BMP280;67498;53.650;10.090;2023-08-24T03:32:41;101724.50;;;16.60
78225;BMP280;67498;53.650;10.090;2023-08-24T03:35:07;101733.75;;;16.68
78225;BMP280;67498;53.650;10.090;2023-08-24T03:37:33;101731.16;;;16.64
78225;BMP280;67498;53.650;10.090;2023-08-24T03:39:58;101724.91;;;16.58
78225;BMP280;67498;53.650;10.090;2023-08-24T03:42:23;101732.00;;;16.61
78225;BMP280;67498;53.650;10.090;2023-08-24T03:44:49;101725.00;;;16.55
78225;BMP280;67498;53.650;10.090;2023-08-24T03:47:14;101726.47;;;16.56
78225;BMP280;67498;53.650;10.090;2023-08-24T03:49:42;101726.16;;;16.54
78225;BMP280;67498;53.650;10.090;2023-08-24T03:52:07;101727.38;;;16.49
78225;BMP280;67498;53.650;10.090;2023-08-24T03:54:40;101722.47;;;16.51
78225;BMP280;67498;53.650;10.090;2023-08-24T03:57:08;101724.84;;;16.46
78225;BMP280;67498;53.650;10.090;2023-08-24T03:59:33;101736.03;;;16.50
78225;BMP280;67498;53.650;10.090;2023-08-24T04:01:59;101724.84;;;16.46
78225;BMP280;67498;53.650;10.090;2023-08-24T04:04:27;101735.66;;;16.51
78225;BMP280;67498;53.650;10.090;2023-08-24T04:06:53;101734.53;;;16.49
78225;BMP280;67498;53.650;10.090;2023-08-24T04:09:18;101734.25;;;16.47
78225;BMP280;67498;53.650;10.090;2023-08-24T04:11:43;101733.97;;;16.41
78225;BMP280;67498;53.650;10.090;2023-08-24T04:14:09;101734.41;;;16.39
78225;BMP280;67498;53.650;10.090;2023-08-24T04:16:34;101730.34;;;16.35
78225;BMP280;67498;53.650;10.090;2023-08-24T04:18:59;101731.16;;;16.32
78225;BMP280;67498;53.650;10.090;2023-08-24T04:21:24;101723.03;;;16.26
78225;BMP280;67498;53.650;10.090;2023-08-24T04:23:50;101717.06;;;16.22
78225;BMP280;67498;53.650;10.090;2023-08-24T04:26:15;101730.50;;;16.28
78225;BMP280;67498;53.650;10.090;2023-08-24T04:28:40;101725.72;;;16.23
78225;BMP280;67498;53.650;10.090;2023-08-24T04:31:05;101717.50;;;16.21
78225;BMP280;67498;53.650;10.090;2023-08-24T04:33:31;101729.44;;;16.25
78225;BMP280;67498;53.650;10.090;2023-08-24T04:35:58;101727.94;;;16.24
78225;BMP280;67498;53.650;10.090;2023-08-24T04:38:23;101725.41;;;16.21
78225;BMP280;67498;53.650;10.090;2023-08-24T04:40:53;101722.78;;;16.21
78225;BMP280;67498;53.650;10.090;2023-08-24T04:43:20;101724.91;;;16.26
78225;BMP280;67498;53.650;10.090;2023-08-24T04:45:50;101717.81;;;16.23
78225;BMP280;67498;53.650;10.090;2023-08-24T04:48:23;101723.09;;;16.23
78225;BMP280;67498;53.650;10.090;2023-08-24T04:50:49;101717.53;;;16.17
78225;BMP280;67498;53.650;10.090;2023-08-24T04:53:17;101725.78;;;16.19
78225;BMP280;67498;53.650;10.090;2023-08-24T04:55:43;101734.06;;;16.21
78225;BMP280;67498;53.650;10.090;2023-08-24T04:58:08;101750.25;;;16.20
78225;BMP280;67498;53.650;10.090;2023-08-24T05:00:35;101743.50;;;16.19
78225;BMP280;67498;53.650;10.090;2023-08-24T05:03:04;101748.44;;;16.16
78225;BMP280;67498;53.650;10.090;2023-08-24T05:05:30;101736.09;;;16.13
78225;BMP280;67498;53.650;10.090;2023-08-24T05:07:57;101748.44;;;16.16
78225;BMP280;67498;53.650;10.090;2023-08-24T05:10:22;101747.72;;;16.16
78225;BMP280;67498;53.650;10.090;2023-08-24T05:12:48;101739.84;;;16.12
78225;BMP280;67498;53.650;10.090;2023-08-24T05:15:13;101758.16;;;16.20
78225;BMP280;67498;53.650;10.090;2023-08-24T05:17:41;101750.59;;;16.22
78225;BMP280;67498;53.650;10.090;2023-08-24T05:20:07;101745.72;;;16.20
78225;BMP280;67498;53.650;10.090;2023-08-24T05:22:33;101755.38;;;16.27
78225;BMP280;67498;53.650;10.090;2023-08-24T05:24:59;101760.97;;;16.29
78225;BMP280;67498;53.650;10.090;2023-08-24T05:27:24;101748.28;;;16.24
78225;BMP280;67498;53.650;10.090;2023-08-24T05:29:49;101750.19;;;16.23
78225;BMP280;67498;53.650;10.090;2023-08-24T05:32:14;101754.28;;;16.24
78225;BMP280;67498;53.650;10.090;2023-08-24T05:34:40;101759.56;;;16.24
78225;BMP280;67498;53.650;10.090;2023-08-24T05:37:05;101763.22;;;16.30
78225;BMP280;67498;53.650;10.090;2023-08-24T05:39:30;101765.03;;;16.33
78225;BMP280;67498;53.650;10.090;2023-08-24T05:41:55;101769.81;;;16.38
78225;BMP280;67498;53.650;10.090;2023-08-24T05:44:21;101759.94;;;16.43
78225;BMP280;67498;53.650;10.090;2023-08-24T05:46:46;101759.03;;;16.49
78225;BMP280;67498;53.650;10.090;2023-08-24T05:49:12;101759.28;;;16.55
78225;BMP280;67498;53.650;10.090;2023-08-24T05:51:37;101755.47;;;16.56
78225;BMP280;67498;53.650;10.090;2023-08-24T05:54:03;101745.28;;;16.58
78225;BMP280;67498;53.650;10.090;2023-08-24T05:56:28;101765.47;;;16.81
78225;BMP280;67498;53.650;10.090;2023-08-24T05:58:54;101762.16;;;16.93
78225;BMP280;67498;53.650;10.090;2023-08-24T06:01:20;101754.97;;;16.94
78225;BMP280;67498;53.650;10.090;2023-08-24T06:03:45;101747.97;;;17.03
78225;BMP280;67498;53.650;10.090;2023-08-24T06:06:10;101751.31;;;17.20
78225;BMP280;67498;53.650;10.090;2023-08-24T06:08:36;101754.50;;;17.28
78225;BMP280;67498;53.650;10.090;2023-08-24T06:11:01;101747.34;;;17.28
78225;BMP280;67498;53.650;10.090;2023-08-24T06:13:27;101759.09;;;17.40
78225;BMP280;67498;53.650;10.090;2023-08-24T06:15:53;101749.00;;;17.51
78225;BMP280;67498;53.650;10.090;2023-08-24T06:18:19;101759.34;;;17.58
78225;BMP280;67498;53.650;10.090;2023-08-24T06:20:45;101753.13;;;17.65
78225;BMP280;67498;53.650;10.090;2023-08-24T06:23:11;101746.81;;;17.75
78225;BMP280;67498;53.650;10.090;2023-08-24T06:25:38;101738.88;;;17.75
78225;BMP280;67498;53.650;10.090;2023-08-24T06:28:03;101732.97;;;17.84
78225;BMP280;67498;53.650;10.090;2023-08-24T06:30:29;101730.53;;;17.89
78225;BMP280;67498;53.650;10.090;2023-08-24T06:32:58;101716.38;;;17.96
78225;BMP280;67498;53.650;10.090;2023-08-24T06:35:23;101715.22;;;18.10
78225;BMP280;67498;53.650;10.090;2023-08-24T06:37:49;101717.84;;;18.23
78225;BMP280;67498;53.650;10.090;2023-08-24T06:40:14;101704.06;;;18.40
78225;BMP280;67498;53.650;10.090;2023-08-24T06:42:39;101704.91;;;18.72
78225;BMP280;67498;53.650;10.090;2023-08-24T06:45:05;101711.97;;;19.10
78225;BMP280;67498;53.650;10.090;2023-08-24T06:47:31;101711.75;;;19.48
78225;BMP280;67498;53.650;10.090;2023-08-24T06:49:57;101719.38;;;19.86
78225;BMP280;67498;53.650;10.090;2023-08-24T06:52:22;101712.38;;;20.11
78225;BMP280;67498;53.650;10.090;2023-08-24T06:54:47;101718.91;;;20.37
78225;BMP280;67498;53.650;10.090;2023-08-24T06:57:18;101712.41;;;20.66
78225;BMP280;67498;53.650;10.090;2023-08-24T06:59:43;101709.31;;;20.86
78225;BMP280;67498;53.650;10.090;2023-08-24T07:02:08;101704.72;;;20.95
78225;BMP280;67498;53.650;10.090;2023-08-24T07:04:34;101696.25;;;21.15
78225;BMP280;67498;53.650;10.090;2023-08-24T07:06:59;101694.28;;;21.25
78225;BMP280;67498;53.650;10.090;2023-08-24T07:09:24;101703.00;;;21.25
78225;BMP280;67498;53.650;10.090;2023-08-24T07:11:50;101705.53;;;21.20
78225;BMP280;67498;53.650;10.090;2023-08-24T07:14:15;101695.81;;;21.17
78225;BMP280;67498;53.650;10.090;2023-08-24T07:16:40;101695.94;;;21.13
78225;BMP280;67498;53.650;10.090;2023-08-24T07:19:06;101700.22;;;21.11
78225;BMP280;67498;53.650;10.090;2023-08-24T07:21:31;101699.50;;;21.10
78225;BMP280;67498;53.650;10.090;2023-08-24T07:23:56;101693.59;;;21.06
78225;BMP280;67498;53.650;10.090;2023-08-24T07:26:22;101699.06;;;21.12
78225;BMP280;67498;53.650;10.090;2023-08-24T07:28:47;101702.28;;;21.16
78225;BMP280;67498;53.650;10.090;2023-08-24T07:31:13;101703.13;;;21.31
78225;BMP280;67498;53.650;10.090;2023-08-24T07:33:38;101710.69;;;21.56
78225;BMP280;67498;53.650;10.090;2023-08-24T07:36:09;101688.31;;;21.72
78225;BMP280;67498;53.650;10.090;2023-08-24T07:38:34;101695.50;;;21.81
78225;BMP280;67498;53.650;10.090;2023-08-24T07:40:59;101701.59;;;21.96
78225;BMP280;67498;53.650;10.090;2023-08-24T07:43:24;101694.06;;;22.19
78225;BMP280;67498;53.650;10.090;2023-08-24T07:45:50;101692.59;;;22.32
78225;BMP280;67498;53.650;10.090;2023-08-24T07:48:15;101693.91;;;22.37
78225;BMP280;67498;53.650;10.090;2023-08-24T07:50:41;101684.16;;;22.34
78225;BMP280;67498;53.650;10.090;2023-08-24T07:53:06;101685.06;;;22.31
78225;BMP280;67498;53.650;10.090;2023-08-24T07:55:31;101702.09;;;22.48
78225;BMP280;67498;53.650;10.090;2023-08-24T07:57:56;101692.94;;;22.64
78225;BMP280;67498;53.650;10.090;2023-08-24T08:00:22;101693.09;;;22.75
78225;BMP280;67498;53.650;10.090;2023-08-24T08:02:50;101691.81;;;22.85
78225;BMP280;67498;53.650;10.090;2023-08-24T08:05:17;101687.19;;;22.86
78225;BMP280;67498;53.650;10.090;2023-08-24T08:07:42;101686.94;;;22.84
78225;BMP280;67498;53.650;10.090;2023-08-24T08:10:08;101683.72;;;22.80
78225;BMP280;67498;53.650;10.090;2023-08-24T08:12:34;101669.84;;;22.76
78225;BMP280;67498;53.650;10.090;2023-08-24T08:15:00;101669.13;;;22.75
78225;BMP280;67498;53.650;10.090;2023-08-24T08:17:26;101665.97;;;22.77
78225;BMP280;67498;53.650;10.090;2023-08-24T08:19:56;101666.09;;;22.67
78225;BMP280;67498;53.650;10.090;2023-08-24T08:22:22;101672.16;;;22.68
78225;BMP280;67498;53.650;10.090;2023-08-24T08:24:47;101666.28;;;22.64
78225;BMP280;67498;53.650;10.090;2023-08-24T08:27:13;101660.06;;;22.52
78225;BMP280;67498;53.650;10.090;2023-08-24T08:29:38;101666.72;;;22.62
78225;BMP280;67498;53.650;10.090;2023-08-24T08:32:03;101678.47;;;22.71
78225;BMP280;67498;53.650;10.090;2023-08-24T08:34:30;101666.34;;;22.84
78225;BMP280;67498;53.650;10.090;2023-08-24T08:36:56;101664.56;;;22.96
78225;BMP280;67498;53.650;10.090;2023-08-24T08:39:22;101645.38;;;22.92
78225;BMP280;67498;53.650;10.090;2023-08-24T08:41:48;101651.53;;;22.98
78225;BMP280;67498;53.650;10.090;2023-08-24T08:44:14;101657.03;;;23.09
78225;BMP280;67498;53.650;10.090;2023-08-24T08:46:43;101647.38;;;23.12
78225;BMP280;67498;53.650;10.090;2023-08-24T08:49:09;101649.13;;;23.35
78225;BMP280;67498;53.650;10.090;2023-08-24T08:51:39;101659.13;;;23.61
78225;BMP280;67498;53.650;10.090;2023-08-24T08:54:05;101659.44;;;23.68
78225;BMP280;67498;53.650;10.090;2023-08-24T08:56:32;101655.50;;;23.64
78225;BMP280;67498;53.650;10.090;2023-08-24T08:58:58;101641.66;;;23.60
78225;BMP280;67498;53.650;10.090;2023-08-24T09:01:24;101645.59;;;23.64
78225;BMP280;67498;53.650;10.090;2023-08-24T09:03:51;101649.44;;;23.84
78225;BMP280;67498;53.650;10.090;2023-08-24T09:06:16;101658.66;;;24.09
78225;BMP280;67498;53.650;10.090;2023-08-24T09:08:42;101643.56;;;24.31
78225;BMP280;67498;53.650;10.090;2023-08-24T09:11:08;101644.22;;;24.52
78225;BMP280;67498;53.650;10.090;2023-08-24T09:13:34;101646.91;;;24.52
78225;BMP280;67498;53.650;10.090;2023-08-24T09:16:04;101630.16;;;24.57
78225;BMP280;67498;53.650;10.090;2023-08-24T09:18:37;101642.56;;;24.98
78225;BMP280;67498;53.650;10.090;2023-08-24T09:21:10;101648.53;;;25.30
78225;BMP280;67498;53.650;10.090;2023-08-24T09:23:45;101659.75;;;25.45
78225;BMP280;67498;53.650;10.090;2023-08-24T09:26:11;101656.56;;;25.35
78225;BMP280;67498;53.650;10.090;2023-08-24T09:28:37;101651.84;;;25.13
78225;BMP280;67498;53.650;10.090;2023-08-24T09:31:04;101665.88;;;25.03
78225;BMP280;67498;53.650;10.090;2023-08-24T09:33:30;101655.59;;;24.84
78225;BMP280;67498;53.650;10.090;2023-08-24T09:35:56;101667.78;;;24.91
78225;BMP280;67498;53.650;10.090;2023-08-24T09:38:27;101645.38;;;25.37
78225;BMP280;67498;53.650;10.090;2023-08-24T09:40:54;101651.56;;;25.82
78225;BMP280;67498;53.650;10.090;2023-08-24T09:43:20;101665.94;;;25.85
78225;BMP280;67498;53.650;10.090;2023-08-24T09:45:56;101658.59;;;25.57
78225;BMP280;67498;53.650;10.090;2023-08-24T09:48:23;101656.28;;;25.17
78225;BMP280;67498;53.650;10.090;2023-08-24T09:50:51;101653.69;;;24.91
78225;BMP280;67498;53.650;10.090;2023-08-24T09:53:18;101648.53;;;24.81
78225;BMP280;67498;53.650;10.090;2023-08-24T09:55:58;101649.00;;;24.80
78225;BMP280;67498;53.650;10.090;2023-08-24T09:58:25;101642.09;;;24.68
78225;BMP280;67498;53.650;10.090;2023-08-24T10:00:51;101641.66;;;24.75
78225;BMP280;67498;53.650;10.090;2023-08-24T10:03:19;101620.53;;;24.71
78225;BMP280;67498;53.650;10.090;2023-08-24T10:05:49;101624.84;;;24.63
78225;BMP280;67498;53.650;10.090;2023-08-24T10:08:16;101623.13;;;25.03
78225;BMP280;67498;53.650;10.090;2023-08-24T10:10:45;101630.84;;;25.60
78225;BMP280;67498;53.650;10.090;2023-08-24T10:13:18;101614.59;;;25.97
78225;BMP280;67498;53.650;10.090;2023-08-24T10:15:47;101603.41;;;25.93
78225;BMP280;67498;53.650;10.090;2023-08-24T10:18:15;101591.72;;;26.08
78225;BMP280;67498;53.650;10.090;2023-08-24T10:20:40;101601.44;;;25.99
78225;BMP280;67498;53.650;10.090;2023-08-24T10:23:08;101606.06;;;25.71
78225;BMP280;67498;53.650;10.090;2023-08-24T10:25:33;101601.41;;;25.66
78225;BMP280;67498;53.650;10.090;2023-08-24T10:28:00;101605.34;;;25.76
78225;BMP280;67498;53.650;10.090;2023-08-24T10:30:26;101602.16;;;25.89
78225;BMP280;67498;53.650;10.090;2023-08-24T10:32:54;101588.56;;;25.98
78225;BMP280;67498;53.650;10.090;2023-08-24T10:35:21;101569.06;;;25.92
78225;BMP280;67498;53.650;10.090;2023-08-24T10:37:46;101564.22;;;25.90
78225;BMP280;67498;53.650;10.090;2023-08-24T10:40:12;101554.47;;;25.87
78225;BMP280;67498;53.650;10.090;2023-08-24T10:42:45;101553.03;;;25.81
78225;BMP280;67498;53.650;10.090;2023-08-24T10:45:13;101559.09;;;25.87
78225;BMP280;67498;53.650;10.090;2023-08-24T10:47:45;101554.22;;;25.80
78225;BMP280;67498;53.650;10.090;2023-08-24T10:50:11;101562.03;;;25.83
78225;BMP280;67498;53.650;10.090;2023-08-24T10:52:37;101566.66;;;25.88
78225;BMP280;67498;53.650;10.090;2023-08-24T10:55:05;101565.66;;;25.97
78225;BMP280;67498;53.650;10.090;2023-08-24T10:57:55;101547.63;;;25.92
78225;BMP280;67498;53.650;10.090;2023-08-24T11:00:21;101554.94;;;25.97
78225;BMP280;67498;53.650;10.090;2023-08-24T11:02:49;101541.09;;;25.82
78225;BMP280;67498;53.650;10.090;2023-08-24T11:10:28;101539.41;;;25.67
78225;BMP280;67498;53.650;10.090;2023-08-24T11:15:41;101529.66;;;25.59
78225;BMP280;67498;53.650;10.090;2023-08-24T11:20:44;101524.78;;;25.63
78225;BMP280;67498;53.650;10.090;2023-08-24T11:23:10;101515.56;;;25.64
78225;BMP280;67498;53.650;10.090;2023-08-24T11:25:36;101506.53;;;25.61
78225;BMP280;67498;53.650;10.090;2023-08-24T11:28:03;101499.75;;;25.55
78225;BMP280;67498;53.650;10.090;2023-08-24T11:30:29;101491.72;;;25.49
78225;BMP280;67498;53.650;10.090;2023-08-24T11:32:54;101490.25;;;25.48
78225;BMP280;67498;53.650;10.090;2023-08-24T11:35:20;101500.47;;;25.55
78225;BMP280;67498;53.650;10.090;2023-08-24T11:37:54;101501.19;;;25.61
78225;BMP280;67498;53.650;10.090;2023-08-24T11:40:20;101490.50;;;25.67
78225;BMP280;67498;53.650;10.090;2023-08-24T11:42:46;101508.50;;;25.72
78225;BMP280;67498;53.650;10.090;2023-08-24T11:45:12;101497.31;;;25.74
78225;BMP280;67498;53.650;10.090;2023-08-24T11:47:38;101498.75;;;25.80
78225;BMP280;67498;53.650;10.090;2023-08-24T11:50:04;101475.16;;;25.79
78225;BMP280;67498;53.650;10.090;2023-08-24T11:52:29;101481.47;;;25.87
78225;BMP280;67498;53.650;10.090;2023-08-24T11:54:58;101457.38;;;25.92
78225;BMP280;67498;53.650;10.090;2023-08-24T11:57:24;101461.47;;;25.99
78225;BMP280;67498;53.650;10.090;2023-08-24T11:59:51;101457.34;;;26.04
78225;BMP280;67498;53.650;10.090;2023-08-24T12:02:16;101460.03;;;26.04
78225;BMP280;67498;53.650;10.090;2023-08-24T12:04:43;101449.81;;;26.02
78225;BMP280;67498;53.650;10.090;2023-08-24T12:07:12;101438.38;;;26.07
78225;BMP280;67498;53.650;10.090;2023-08-24T12:09:41;101429.38;;;26.05
78225;BMP280;67498;53.650;10.090;2023-08-24T12:12:13;101415.50;;;26.01
78225;BMP280;67498;53.650;10.090;2023-08-24T12:14:43;101405.03;;;25.97
78225;BMP280;67498;53.650;10.090;2023-08-24T12:17:09;101403.06;;;26.03
78225;BMP280;67498;53.650;10.090;2023-08-24T12:19:34;101408.63;;;26.11
78225;BMP280;67498;53.650;10.090;2023-08-24T12:22:00;101416.66;;;26.16
78225;BMP280;67498;53.650;10.090;2023-08-24T12:24:25;101414.22;;;26.18
78225;BMP280;67498;53.650;10.090;2023-08-24T12:26:57;101409.13;;;26.15
78225;BMP280;67498;53.650;10.090;2023-08-24T12:29:27;101419.09;;;26.14
78225;BMP280;67498;53.650;10.090;2023-08-24T12:31:57;101402.78;;;26.18
78225;BMP280;67498;53.650;10.090;2023-08-24T12:34:22;101400.53;;;26.22
78225;BMP280;67498;53.650;10.090;2023-08-24T12:36:48;101412.00;;;26.22
78225;BMP280;67498;53.650;10.090;2023-08-24T12:39:13;101418.31;;;26.25
78225;BMP280;67498;53.650;10.090;2023-08-24T12:41:40;101416.63;;;26.22
78225;BMP280;67498;53.650;10.090;2023-08-24T12:44:05;101412.47;;;26.26
78225;BMP280;67498;53.650;10.090;2023-08-24T12:46:32;101408.13;;;26.23
78225;BMP280;67498;53.650;10.090;2023-08-24T12:48:57;101408.13;;;26.23
78225;BMP280;67498;53.650;10.090;2023-08-24T12:51:22;101391.59;;;26.14
78225;BMP280;67498;53.650;10.090;2023-08-24T12:53:49;101392.56;;;26.11
78225;BMP280;67498;53.650;10.090;2023-08-24T12:56:15;101368.03;;;26.01
78225;BMP280;67498;53.650;10.090;2023-08-24T12:58:40;101366.34;;;25.98
78225;BMP280;67498;53.650;10.090;2023-08-24T13:01:05;101357.06;;;25.99
78225;BMP280;67498;53.650;10.090;2023-08-24T13:03:32;101334.47;;;25.94
78225;BMP280;67498;53.650;10.090;2023-08-24T13:05:57;101342.44;;;26.06
78225;BMP280;67498;53.650;10.090;2023-08-24T13:08:22;101336.84;;;26.09
78225;BMP280;67498;53.650;10.090;2023-08-24T13:10:48;101336.78;;;26.20
78225;BMP280;67498;53.650;10.090;2023-08-24T13:13:13;101333.31;;;26.25
78225;BMP280;67498;53.650;10.090;2023-08-24T13:15:38;101331.13;;;26.30
78225;BMP280;67498;53.650;10.090;2023-08-24T13:18:03;101334.75;;;26.32
78225;BMP280;67498;53.650;10.090;2023-08-24T13:20:29;101333.75;;;26.35
78225;BMP280;67498;53.650;10.090;2023-08-24T13:22:54;101323.28;;;26.37
78225;BMP280;67498;53.650;10.090;2023-08-24T13:25:19;101335.91;;;26.42
78225;BMP280;67498;53.650;10.090;2023-08-24T13:27:45;101341.72;;;26.46
78225;BMP280;67498;53.650;10.090;2023-08-24T13:30:10;101340.53;;;26.47
78225;BMP280;67498;53.650;10.090;2023-08-24T13:32:35;101346.13;;;26.44
78225;BMP280;67498;53.650;10.090;2023-08-24T13:35:02;101338.31;;;26.46
78225;BMP280;67498;53.650;10.090;2023-08-24T13:37:27;101336.91;;;26.45
78225;BMP280;67498;53.650;10.090;2023-08-24T13:39:53;101331.53;;;26.39
78225;BMP280;67498;53.650;10.090;2023-08-24T13:42:18;101327.50;;;26.27
78225;BMP280;67498;53.650;10.090;2023-08-24T13:44:44;101330.91;;;26.22
78225;BMP280;67498;53.650;10.090;2023-08-24T13:47:10;101332.91;;;26.21
78225;BMP280;67498;53.650;10.090;2023-08-24T13:49:35;101329.94;;;26.25